»·PEaware :: N9574A KVGT-KSNA

N9574A :: KVGT-KSNA

FLIGHT INFORMATION

Flight Status: Arrived
Operator: Privately registered:
United States
More flights under this callsign
Pilot: Mitch R. (11204)
Aircraft: Unknown
(EA55)
More flights by this aircraft type
Origin: KVGT North Las Vegas
United States
Destination: KSNA John Wayne-Orange Co
United States
More flights between these airports :: More routes between these airports
Route: +RTTRN3 LAS NATEE HEC KAYOH7
File this flight plan on PilotEdge
Remarks:
Altitude:
(Current/Filed)
20,000ft
Speed:
(Current/Filed)
370kts
Departed: 20-Dec-17 02:10 PM
Arrived: 20-Dec-17 03:16 PM
Distance/Time
Traveled:
201nm/1:05
Distance/Time
To Go:
Arrived

Flight Plot

Page will automatically refresh every two minutes.

Flight plan parsing failed; only flown route is shown


Map Options




Map Legend


Flown Route
Filed Route
Departure Airport
Arrival Airport
Navaid (VOR, NDB)
Fix

Horizontal Profiles

Position Reports

Time Latitude Longitude Heading Altitude Ground
Speed
20-Dec-17 13:50 36.208256 -115.197778 177 2193ft 0kts
20-Dec-17 13:51 36.208256 -115.197778 177 2193ft 0kts
20-Dec-17 13:52 36.208256 -115.197778 177 2193ft 0kts
20-Dec-17 13:53 36.208256 -115.197778 177 2193ft 0kts
20-Dec-17 13:54 36.208256 -115.197778 177 2193ft 0kts
20-Dec-17 13:55 36.208256 -115.197778 177 2193ft 0kts
20-Dec-17 13:56 36.208256 -115.197778 177 2193ft 0kts
20-Dec-17 13:57 36.208256 -115.197778 177 2193ft 0kts
20-Dec-17 13:58 36.208256 -115.197778 177 2193ft 0kts
20-Dec-17 13:59 36.208256 -115.197778 177 2193ft 0kts
20-Dec-17 14:00 36.208256 -115.197778 177 2193ft 0kts
20-Dec-17 14:01 36.208256 -115.197778 177 2193ft 0kts
20-Dec-17 14:02 36.208256 -115.197778 177 2193ft 0kts
20-Dec-17 14:03 36.208256 -115.197778 177 2193ft 0kts
20-Dec-17 14:04 36.208256 -115.197778 177 2193ft 0kts
20-Dec-17 14:05 36.208256 -115.197778 177 2193ft 0kts
20-Dec-17 14:06 36.208256 -115.197778 177 2193ft 0kts
20-Dec-17 14:07 36.208256 -115.197778 177 2193ft 0kts
20-Dec-17 14:08 36.208256 -115.197778 177 2193ft 0kts
20-Dec-17 14:09 36.208095 -115.197516 89 2192ft 3kts
20-Dec-17 14:10 36.208178 -115.196471 26 2190ft 2kts
20-Dec-17 14:11 36.208981 -115.197313 314 2193ft 9kts
20-Dec-17 14:12 36.210775 -115.199573 314 2200ft 17kts
20-Dec-17 14:13 36.212288 -115.201841 268 2207ft 8kts
20-Dec-17 14:14 36.212423 -115.203276 0 2210ft 8kts
20-Dec-17 14:15 36.212674 -115.201440 88 2206ft 5kts
20-Dec-17 14:16 36.211627 -115.198835 134 2199ft 50kts
20-Dec-17 14:17 36.194407 -115.184291 183 2919ft 144kts
20-Dec-17 14:18 36.177990 -115.220329 253 4748ft 177kts
20-Dec-17 14:19 36.192806 -115.260186 340 6774ft 195kts
20-Dec-17 14:20 36.221068 -115.235709 96 8771ft 185kts
20-Dec-17 14:21 36.188415 -115.215652 193 10766ft 185kts
20-Dec-17 14:22 36.144261 -115.227548 199 13478ft 160kts
20-Dec-17 14:23 36.097982 -115.240310 206 15103ft 188kts
20-Dec-17 14:24 36.046265 -115.254811 208 17028ft 191kts
20-Dec-17 14:25 35.997026 -115.268649 211 19023ft 178kts
20-Dec-17 14:26 35.945505 -115.283592 207 19810ft 227kts
20-Dec-17 14:27 35.875617 -115.303303 204 19804ft 295kts
20-Dec-17 14:28 35.790051 -115.327029 202 19802ft 337kts
20-Dec-17 14:29 35.696468 -115.352957 202 19801ft 360kts
20-Dec-17 14:30 35.623845 -115.415076 239 19800ft 320kts
20-Dec-17 14:31 35.566091 -115.498587 234 19799ft 329kts
20-Dec-17 14:32 35.504428 -115.579310 233 19798ft 330kts
20-Dec-17 14:33 35.442090 -115.658708 232 19805ft 332kts
20-Dec-17 14:34 35.379974 -115.737143 232 19809ft 331kts
20-Dec-17 14:35 35.316777 -115.816631 232 19817ft 331kts
20-Dec-17 14:36 35.253674 -115.895783 232 19885ft 331kts
20-Dec-17 14:37 35.190469 -115.974862 232 19887ft 331kts
20-Dec-17 14:38 35.126593 -116.054593 232 19886ft 331kts
20-Dec-17 14:39 35.063371 -116.133314 232 19885ft 331kts
20-Dec-17 14:40 34.998353 -116.210926 231 19884ft 332kts
20-Dec-17 14:41 34.934549 -116.290024 232 19883ft 331kts
20-Dec-17 14:42 34.873088 -116.367450 230 19883ft 336kts
20-Dec-17 14:43 34.809823 -116.446789 232 19880ft 331kts
20-Dec-17 14:44 34.746049 -116.525604 232 19879ft 332kts
20-Dec-17 14:45 34.682900 -116.603233 231 19879ft 332kts
20-Dec-17 14:46 34.619994 -116.679499 231 18958ft 326kts
20-Dec-17 14:47 34.558663 -116.754507 231 16757ft 312kts
20-Dec-17 14:48 34.498960 -116.827623 231 15547ft 310kts
20-Dec-17 14:49 34.440231 -116.899600 230 14579ft 306kts
20-Dec-17 14:50 34.385749 -116.966023 230 13669ft 304kts
20-Dec-17 14:51 34.337358 -117.025075 227 12922ft 308kts
20-Dec-17 14:52 34.286935 -117.086331 227 12945ft 310kts
20-Dec-17 14:53 34.214445 -117.122562 189 12946ft 317kts
20-Dec-17 14:54 34.131898 -117.133230 191 12024ft 301kts
20-Dec-17 14:55 34.052957 -117.144442 193 10973ft 292kts
20-Dec-17 14:56 33.987841 -117.154119 190 10952ft 284kts
20-Dec-17 14:57 33.914940 -117.164686 194 10973ft 285kts
20-Dec-17 14:58 33.843673 -117.175344 193 10973ft 285kts
20-Dec-17 14:59 33.762399 -117.199706 236 10381ft 264kts
20-Dec-17 15:00 33.763192 -117.254234 281 9284ft 234kts
20-Dec-17 15:01 33.771915 -117.322698 276 8024ft 247kts
20-Dec-17 15:02 33.775487 -117.379854 275 7943ft 211kts
20-Dec-17 15:03 33.777412 -117.432531 273 7945ft 209kts
20-Dec-17 15:04 33.778687 -117.488275 273 7946ft 208kts
20-Dec-17 15:05 33.778758 -117.536647 271 7215ft 203kts
20-Dec-17 15:06 33.778549 -117.583151 271 6364ft 195kts
20-Dec-17 15:07 33.788898 -117.618633 301 5538ft 182kts
20-Dec-17 15:08 33.805141 -117.649669 301 4652ft 173kts
20-Dec-17 15:09 33.820407 -117.677001 302 3978ft 167kts
20-Dec-17 15:10 33.835551 -117.703286 301 3954ft 160kts
20-Dec-17 15:11 33.851208 -117.730153 301 3949ft 163kts
20-Dec-17 15:12 33.859725 -117.761335 242 3933ft 158kts
20-Dec-17 15:13 33.824641 -117.771709 198 3334ft 137kts
20-Dec-17 15:14 33.802917 -117.786745 213 2791ft 117kts
20-Dec-17 15:15 33.786629 -117.797912 213 2408ft 118kts
20-Dec-17 15:16 33.769929 -117.808970 209 2039ft 119kts
20-Dec-17 15:17 33.752639 -117.820040 209 1661ft 116kts
20-Dec-17 15:18 33.734985 -117.831223 208 1270ft 117kts
20-Dec-17 15:19 33.716762 -117.842813 208 871ft 118kts
20-Dec-17 15:20 33.697878 -117.854781 209 450ft 104kts
20-Dec-17 15:21 33.683592 -117.863831 208 134ft 96kts
20-Dec-17 15:22 33.674119 -117.870172 260 59ft 17kts
20-Dec-17 15:23 33.674589 -117.871248 12 59ft 6kts
20-Dec-17 15:24 33.674792 -117.871133 27 59ft 0kts

Navigation Log

Ident Type
Flight plan parsing failed, navigation log unavailable